Terminal Aerodrome Forecast
Issued by NWS Raleigh/Durham, NC

Home | Current Version | Previous Version | Text Only | Print | Product List | Glossary On
Versions: 1 2 3 4 5 6 7 8 9 10 11 12 13 14 15 16 17 18 19 20 21 22 23 24 25 26 27 28 29 30 31 32 33 34
000
FTUS42 KRAH 282051 AAA
TAFRDU
TAF AMD
KRDU 282051Z 2821/2918 16004KT P6SM VCTS SCT030CB BKN050
      TEMPO 2822/2902 5SM -TSRA BKN030CB
     FM290500 13005KT 5SM -SHRA SCT020 BKN040
     FM291000 15004KT 4SM BR BKN007
     FM291700 15007KT P6SM BKN050=

USA.gov is the U.S. government's official web portal to all federal, state and local government web resources and services.